Time;durP1;ratioP1;P1;durP2;ratioP2;P2;SDS_P1;SDS_P2;PMS_P1;PMS_P2;Temp;Humidity;BMP_temperature;BMP_pressure;BME280_temperature;BME280_humidity;BME280_pressure;Samples;Min_cycle;Max_cycle;Signal;HPM_P1;HPM_P2
2022/06/02 00:01:08;;;;;;;10.50;6.75;;;8.80;99.90;;;;;;6273369;22;20472;-79
2022/06/02 00:03:49;;;;;;;12.18;6.45;;;8.70;99.90;;;;;;6190716;22;20008;-80
2022/06/02 00:06:46;;;;;;;10.20;6.78;;;8.70;99.90;;;;;;6273415;22;20047;-82
2022/06/02 00:09:32;;;;;;;12.48;6.70;;;8.60;99.90;;;;;;6272981;22;20012;-81
2022/06/02 00:12:07;;;;;;;9.60;6.22;;;8.60;99.90;;;;;;6274426;22;20437;-81
2022/06/02 00:14:55;;;;;;;10.13;6.10;;;8.60;99.90;;;;;;6272926;22;20452;-81
2022/06/02 00:17:55;;;;;;;9.40;5.40;;;8.60;99.90;;;;;;6272847;22;20024;-81
2022/06/02 00:20:29;;;;;;;9.95;5.78;;;8.60;99.90;;;;;;6272840;22;20086;-81
2022/06/02 00:23:28;;;;;;;7.82;5.30;;;8.50;99.90;;;;;;6273097;22;20087;-81
2022/06/02 00:25:54;;;;;;;10.93;5.47;;;8.50;99.90;;;;;;6272742;22;20073;-82
2022/06/02 00:28:43;;;;;;;10.85;6.45;;;8.60;99.90;;;;;;6273199;22;20456;-81
2022/06/02 00:31:25;;;;;;;11.25;6.15;;;8.50;99.90;;;;;;6272774;22;20015;-80
2022/06/02 00:34:12;;;;;;;11.73;6.60;;;8.50;99.90;;;;;;6273168;22;20026;-80
2022/06/02 00:36:45;;;;;;;11.57;7.70;;;8.50;99.90;;;;;;6272967;22;20408;-81
2022/06/02 00:39:14;;;;;;;11.18;6.35;;;8.50;99.90;;;;;;6273051;22;20014;-79
2022/06/02 00:42:07;;;;;;;9.18;6.60;;;8.40;99.90;;;;;;6272759;22;20008;-81
2022/06/02 00:44:44;;;;;;;12.38;7.20;;;8.40;99.90;;;;;;6272969;22;20015;-81
2022/06/02 00:47:44;;;;;;;10.02;6.38;;;8.40;99.90;;;;;;6247597;22;20018;-82
2022/06/02 00:50:27;;;;;;;12.35;6.68;;;8.40;99.90;;;;;;6272509;22;20464;-79
2022/06/02 00:53:14;;;;;;;10.80;6.63;;;8.30;99.90;;;;;;6272541;22;20038;-79
2022/06/02 00:59:36;;;;;;;9.48;5.18;;;8.30;99.90;;;;;;6272800;22;20410;-79
2022/06/02 01:02:03;;;;;;;9.15;6.18;;;8.30;99.90;;;;;;6272667;22;20411;-79
2022/06/02 01:04:29;;;;;;;10.70;6.68;;;8.20;99.90;;;;;;6272735;22;20026;-79
2022/06/02 01:07:15;;;;;;;10.65;6.45;;;8.20;99.90;;;;;;6272847;22;20016;-78
2022/06/02 01:09:55;;;;;;;11.63;6.70;;;8.20;99.90;;;;;;6272520;22;20084;-78
2022/06/02 01:12:27;;;;;;;13.63;7.22;;;8.10;99.90;;;;;;6272690;22;20016;-79
2022/06/02 01:15:20;;;;;;;11.03;7.70;;;8.10;99.90;;;;;;6272553;22;20026;-79
2022/06/02 01:18:16;;;;;;;10.85;7.40;;;8.10;99.90;;;;;;6272271;22;20030;-79
2022/06/02 01:20:56;;;;;;;12.10;6.78;;;8.00;99.90;;;;;;6272587;22;20053;-80
2022/06/02 01:23:49;;;;;;;12.95;7.47;;;8.00;99.90;;;;;;6272736;22;20011;-79
2022/06/02 01:26:33;;;;;;;13.38;6.95;;;8.00;99.90;;;;;;6272953;22;20039;-80
2022/06/02 01:29:22;;;;;;;12.90;7.57;;;8.00;99.90;;;;;;6272926;22;20011;-80
2022/06/02 01:32:01;;;;;;;11.57;7.20;;;8.00;99.90;;;;;;6272426;22;20410;-79
2022/06/02 01:34:32;;;;;;;12.98;7.25;;;7.90;99.90;;;;;;6272888;22;20014;-79
2022/06/02 01:37:07;;;;;;;12.02;7.03;;;7.90;99.90;;;;;;6274813;22;20016;-79
2022/06/02 01:39:50;;;;;;;12.73;7.22;;;7.90;99.90;;;;;;6246870;22;20066;-79
2022/06/02 01:42:55;;;;;;;13.60;6.97;;;7.90;99.90;;;;;;6247237;22;20094;-80
2022/06/02 01:45:39;;;;;;;11.80;7.72;;;7.90;99.90;;;;;;6240226;22;20015;-79
2022/06/02 01:48:18;;;;;;;12.50;7.72;;;7.80;99.90;;;;;;6272909;22;20467;-79
2022/06/02 01:51:01;;;;;;;9.93;6.22;;;7.80;99.90;;;;;;6272641;22;20015;-80
2022/06/02 01:53:42;;;;;;;9.50;6.20;;;7.80;99.90;;;;;;6272452;22;20400;-79
2022/06/02 01:56:44;;;;;;;11.43;7.27;;;7.80;99.90;;;;;;6272449;22;20090;-80
2022/06/02 01:59:49;;;;;;;11.13;7.30;;;7.70;99.90;;;;;;6272763;22;20012;-79
2022/06/02 02:02:25;;;;;;;10.77;6.25;;;7.70;99.90;;;;;;6189784;22;20012;-80
2022/06/02 02:05:06;;;;;;;11.57;7.00;;;7.70;99.90;;;;;;6247502;22;20089;-80
2022/06/02 02:08:05;;;;;;;12.43;6.70;;;7.70;99.90;;;;;;6272896;22;20460;-79
2022/06/02 02:10:49;;;;;;;10.15;6.45;;;7.70;99.90;;;;;;6273095;22;20711;-79
2022/06/02 02:13:23;;;;;;;12.63;6.95;;;7.70;99.90;;;;;;6248153;22;20012;-80
2022/06/02 02:16:12;;;;;;;10.73;7.68;;;7.60;99.90;;;;;;6273690;22;20022;-81
2022/06/02 02:18:57;;;;;;;13.05;7.35;;;7.60;99.90;;;;;;6273323;22;20011;-81
2022/06/02 02:21:47;;;;;;;15.32;8.40;;;7.60;99.90;;;;;;6275275;22;20078;-79
2022/06/02 02:24:32;;;;;;;13.98;7.88;;;7.70;99.90;;;;;;6273840;22;20018;-79
2022/06/02 02:27:19;;;;;;;13.48;7.57;;;7.70;99.90;;;;;;6274061;22;20015;-79
2022/06/02 02:30:07;;;;;;;13.20;8.20;;;7.70;99.90;;;;;;6248492;22;20022;-78
2022/06/02 02:32:45;;;;;;;14.07;8.57;;;7.60;99.90;;;;;;6272885;22;20016;-79
2022/06/02 02:35:38;;;;;;;16.10;9.10;;;7.60;99.90;;;;;;6274256;22;20016;-78
2022/06/02 02:38:12;;;;;;;16.98;9.40;;;7.50;99.90;;;;;;6259700;22;20082;-79
2022/06/02 02:40:37;;;;;;;13.27;8.18;;;7.50;99.90;;;;;;6273762;22;20007;-79
2022/06/02 02:43:21;;;;;;;15.00;8.23;;;7.50;99.90;;;;;;6273778;22;20393;-79
2022/06/02 02:46:04;;;;;;;14.32;8.27;;;7.50;99.90;;;;;;6274573;22;20099;-80
2022/06/02 02:48:45;;;;;;;14.85;9.02;;;7.50;99.90;;;;;;6274577;22;20019;-80
2022/06/02 02:51:21;;;;;;;18.60;10.00;;;7.50;99.90;;;;;;6274303;22;20018;-78
2022/06/02 02:53:53;;;;;;;17.58;9.95;;;7.50;99.90;;;;;;6274354;22;20062;-78
2022/06/02 02:56:40;;;;;;;15.35;9.73;;;7.50;99.90;;;;;;6274162;22;20348;-78
2022/06/02 02:59:24;;;;;;;19.00;10.13;;;7.50;99.90;;;;;;6274341;22;20047;-78
2022/06/02 03:02:20;;;;;;;18.75;10.45;;;7.40;99.90;;;;;;6273919;22;20441;-78
2022/06/02 03:05:11;;;;;;;16.05;9.65;;;7.50;99.90;;;;;;6274397;22;20087;-78
2022/06/02 03:07:37;;;;;;;19.73;10.18;;;7.40;99.90;;;;;;6274013;22;20008;-78
2022/06/02 03:10:20;;;;;;;16.67;10.25;;;7.50;99.90;;;;;;6273830;22;20099;-80
2022/06/02 03:12:46;;;;;;;16.17;9.23;;;7.40;99.90;;;;;;6273959;22;20011;-78
2022/06/02 03:15:28;;;;;;;18.10;10.85;;;7.40;99.90;;;;;;6273836;22;20015;-78
2022/06/02 03:18:05;;;;;;;18.90;10.45;;;7.40;99.90;;;;;;6273904;22;20022;-78
2022/06/02 03:21:17;;;;;;;18.48;9.98;;;7.40;99.90;;;;;;6273382;22;20513;-79
2022/06/02 03:23:46;;;;;;;17.38;10.35;;;7.40;99.90;;;;;;6127041;23;20093;-78
2022/06/02 03:26:30;;;;;;;18.25;10.93;;;7.40;99.90;;;;;;6127117;23;20064;-78
2022/06/02 03:29:27;;;;;;;18.35;11.23;;;7.40;99.90;;;;;;6223943;22;20023;-78
2022/06/02 03:32:10;;;;;;;18.33;11.02;;;7.40;99.90;;;;;;6273166;22;20012;-78
2022/06/02 03:34:57;;;;;;;18.30;10.98;;;7.30;99.90;;;;;;6273706;22;20361;-79
2022/06/02 03:37:23;;;;;;;17.85;10.20;;;7.30;99.90;;;;;;6273610;22;20412;-79
2022/06/02 03:40:27;;;;;;;19.13;9.95;;;7.30;99.90;;;;;;6273230;22;20011;-78
2022/06/02 03:43:12;;;;;;;17.08;9.98;;;7.30;99.90;;;;;;6273290;22;20391;-78
2022/06/02 03:46:09;;;;;;;16.58;9.93;;;7.40;99.90;;;;;;6274270;22;20018;-79
2022/06/02 03:49:07;;;;;;;19.88;10.50;;;7.40;99.90;;;;;;6274364;22;20019;-80
2022/06/02 03:51:38;;;;;;;17.02;9.82;;;7.40;99.90;;;;;;6275505;22;20086;-79
2022/06/02 03:54:15;;;;;;;19.30;10.95;;;7.40;99.90;;;;;;6274551;22;20039;-79
2022/06/02 03:57:04;;;;;;;16.95;10.93;;;7.40;99.90;;;;;;6273279;22;20012;-79
2022/06/02 03:59:48;;;;;;;20.48;10.82;;;7.40;99.90;;;;;;6249055;22;20392;-79
2022/06/02 04:02:22;;;;;;;24.88;11.55;;;7.40;99.90;;;;;;6273033;22;20118;-79
2022/06/02 04:05:21;;;;;;;18.08;10.45;;;7.40;99.90;;;;;;6273200;22;20011;-79
2022/06/02 04:07:50;;;;;;;17.25;9.77;;;7.40;99.90;;;;;;6273410;22;20020;-79
2022/06/02 04:10:34;;;;;;;16.38;9.57;;;7.50;99.90;;;;;;6273004;22;20042;-79
2022/06/02 04:13:37;;;;;;;20.15;10.32;;;7.50;99.90;;;;;;6273040;22;20062;-79
2022/06/02 04:16:37;;;;;;;16.13;9.13;;;7.60;99.90;;;;;;6273178;22;20019;-78
2022/06/02 04:22:40;;;;;;;19.98;10.27;;;7.70;99.90;;;;;;6273380;22;20012;-79
2022/06/02 04:25:41;;;;;;;16.92;9.85;;;7.70;99.90;;;;;;6248329;22;20019;-80
2022/06/02 04:28:17;;;;;;;16.92;10.05;;;7.70;99.90;;;;;;6299881;22;20011;-80
2022/06/02 04:31:20;;;;;;;15.60;9.73;;;7.80;99.90;;;;;;6268950;22;20007;-79
2022/06/02 04:33:56;;;;;;;16.58;9.65;;;7.80;99.90;;;;;;6246956;22;20019;-80
2022/06/02 04:37:00;;;;;;;20.02;10.40;;;7.90;99.90;;;;;;6272858;22;20011;-80
2022/06/02 04:39:40;;;;;;;16.75;9.93;;;8.00;99.90;;;;;;6180789;22;20028;-79
2022/06/02 04:42:24;;;;;;;19.75;10.00;;;8.20;99.90;;;;;;6272423;22;20048;-80
2022/06/02 04:45:18;;;;;;;16.77;10.50;;;8.20;99.90;;;;;;6273071;22;20011;-80
2022/06/02 04:48:08;;;;;;;16.13;10.00;;;8.40;99.90;;;;;;6247083;22;20043;-80
2022/06/02 04:50:56;;;;;;;15.82;9.98;;;8.60;99.90;;;;;;6246937;22;20016;-80
2022/06/02 04:53:46;;;;;;;18.17;10.48;;;8.90;99.90;;;;;;6272462;22;20087;-80
2022/06/02 04:56:32;;;;;;;14.80;9.93;;;9.40;99.90;;;;;;6273038;22;20043;-80
2022/06/02 04:59:18;;;;;;;14.38;9.20;;;9.90;99.90;;;;;;6272944;22;20456;-80
2022/06/02 05:02:02;;;;;;;16.30;10.40;;;10.00;99.90;;;;;;6272538;22;20008;-80
2022/06/02 05:04:51;;;;;;;15.73;9.27;;;10.10;99.90;;;;;;6274400;22;20011;-79
2022/06/02 05:07:54;;;;;;;14.27;8.63;;;10.30;99.90;;;;;;6247580;22;20137;-80
2022/06/02 05:10:56;;;;;;;12.45;8.27;;;10.90;99.90;;;;;;6272198;22;20020;-80
2022/06/02 05:13:41;;;;;;;12.13;8.48;;;11.70;99.90;;;;;;6273772;22;20023;-80
2022/06/02 05:16:43;;;;;;;20.33;11.45;;;12.40;99.90;;;;;;6272575;22;20330;-81
2022/06/02 05:19:27;;;;;;;19.85;13.48;;;12.90;99.90;;;;;;6272583;22;20054;-81
2022/06/02 05:22:25;;;;;;;9.73;7.90;;;13.50;99.90;;;;;;6271969;22;20020;-80
2022/06/02 05:25:12;;;;;;;14.65;8.48;;;13.90;99.90;;;;;;6241475;22;20023;-80
2022/06/02 05:27:46;;;;;;;10.90;8.45;;;14.50;99.90;;;;;;6272929;22;20348;-81
2022/06/02 05:30:36;;;;;;;10.48;7.93;;;14.90;99.90;;;;;;6272353;22;20062;-80
2022/06/02 05:33:17;;;;;;;8.05;6.85;;;15.30;99.90;;;;;;6274885;22;20008;-81
2022/06/02 05:35:58;;;;;;;11.77;7.93;;;15.50;99.90;;;;;;6250753;22;20030;-80
2022/06/02 05:38:29;;;;;;;11.20;8.10;;;15.80;99.90;;;;;;6251428;22;20020;-80
2022/06/02 05:40:58;;;;;;;;;;;16.10;99.90;;;;;;6276873;22;20047;-81
2022/06/02 05:43:40;;;;;;;9.10;7.43;;;16.20;99.90;;;;;;6277396;22;20032;-81
2022/06/02 05:46:35;;;;;;;8.85;7.75;;;16.50;99.90;;;;;;6275566;22;20053;-81
2022/06/02 05:49:06;;;;;;;9.35;7.63;;;16.70;99.90;;;;;;6246991;22;20015;-81
2022/06/02 05:51:39;;;;;;;11.70;7.80;;;16.80;99.90;;;;;;6247276;22;20094;-80
2022/06/02 05:54:23;;;;;;;11.30;8.32;;;16.90;99.90;;;;;;6273835;22;20016;-80
2022/06/02 05:57:08;;;;;;;8.40;7.28;;;17.10;99.90;;;;;;6273113;22;20018;-80
2022/06/02 05:59:58;;;;;;;11.23;7.63;;;17.20;99.90;;;;;;6272834;22;20086;-79
2022/06/02 06:02:51;;;;;;;11.63;8.55;;;17.40;99.90;;;;;;6272819;22;20086;-80
2022/06/02 06:05:24;;;;;;;8.32;6.40;;;17.50;99.90;;;;;;6273246;22;20019;-79
2022/06/02 06:08:19;;;;;;;11.30;7.85;;;17.50;99.90;;;;;;6273762;22;20011;-79
2022/06/02 06:10:54;;;;;;;8.73;7.05;;;17.70;99.90;;;;;;6273392;22;20019;-79
2022/06/02 06:14:03;;;;;;;7.13;6.25;;;17.80;99.90;;;;;;6273677;22;20396;-79
2022/06/02 06:16:44;;;;;;;7.72;6.38;;;18.00;99.90;;;;;;6273579;22;20448;-80
2022/06/02 06:19:25;;;;;;;6.55;5.68;;;18.10;99.90;;;;;;6248605;22;20012;-78
2022/06/02 06:22:15;;;;;;;6.53;5.30;;;18.30;99.90;;;;;;6247860;22;20018;-79
2022/06/02 06:25:02;;;;;;;9.50;5.72;;;18.30;99.90;;;;;;6273396;22;20086;-79
2022/06/02 06:27:34;;;;;;;7.32;5.20;;;18.50;99.90;;;;;;6273234;22;20019;-79
2022/06/02 06:30:28;;;;;;;7.75;4.63;;;18.60;99.90;;;;;;6273319;22;20019;-79
2022/06/02 06:33:01;;;;;;;6.53;3.92;;;18.90;99.90;;;;;;6267636;22;20015;-79
2022/06/02 06:36:05;;;;;;;6.45;3.63;;;19.00;99.90;;;;;;6271989;22;20018;-79
2022/06/02 06:38:40;;;;;;;4.07;3.67;;;19.20;99.90;;;;;;6271786;22;20077;-78
2022/06/02 06:41:11;;;;;;;4.28;3.17;;;19.30;99.90;;;;;;6271741;22;20357;-79
2022/06/02 06:43:37;;;;;;;6.85;4.43;;;19.30;99.90;;;;;;6271926;22;20043;-79
2022/06/02 06:46:24;;;;;;;6.88;4.43;;;19.30;99.90;;;;;;6271895;22;20019;-78
2022/06/02 06:48:57;;;;;;;5.53;4.55;;;19.40;99.90;;;;;;6272064;22;20349;-79
2022/06/02 06:51:44;;;;;;;5.55;3.53;;;19.30;99.90;;;;;;6271680;22;20384;-78
2022/06/02 06:54:36;;;;;;;3.35;2.78;;;19.30;99.90;;;;;;6271952;22;20016;-78
2022/06/02 06:57:16;;;;;;;3.88;3.33;;;19.10;99.90;;;;;;6272031;22;20275;-79
2022/06/02 07:00:06;;;;;;;6.20;3.42;;;19.20;99.90;;;;;;6272359;22;20379;-80
2022/06/02 07:02:58;;;;;;;5.05;3.60;;;19.30;99.90;;;;;;6272010;22;20022;-79
2022/06/02 07:05:33;;;;;;;4.03;2.83;;;19.00;99.90;;;;;;6215867;22;20043;-79
2022/06/02 07:08:34;;;;;;;4.93;2.88;;;18.90;99.90;;;;;;6275030;22;20016;-79
2022/06/02 07:14:26;;;;;;;7.18;3.15;;;17.90;99.90;;;;;;6210632;22;20507;-79
2022/06/02 07:16:55;;;;;;;4.18;2.63;;;17.50;99.90;;;;;;6274546;22;20066;-79
2022/06/02 07:19:42;;;;;;;3.30;2.35;;;17.20;99.90;;;;;;6250548;22;20094;-79
2022/06/02 07:22:36;;;;;;;3.83;2.78;;;16.90;99.90;;;;;;6273626;22;20019;-80
2022/06/02 07:25:15;;;;;;;4.10;2.33;;;16.60;99.90;;;;;;6274302;22;20016;-80
2022/06/02 07:28:07;;;;;;;2.83;2.00;;;17.00;99.90;;;;;;6275018;22;20054;-80
2022/06/02 07:30:33;;;;;;;3.17;2.00;;;18.10;99.90;;;;;;6207795;22;20026;-81
2022/06/02 07:33:26;;;;;;;3.58;2.10;;;18.70;99.90;;;;;;6248626;22;20012;-81
2022/06/02 07:36:34;;;;;;;2.20;2.00;;;18.80;99.90;;;;;;6273760;22;20094;-81
2022/06/02 07:39:08;;;;;;;4.45;2.20;;;18.80;99.90;;;;;;6248854;22;20020;-80
2022/06/02 07:41:49;;;;;;;7.35;2.30;;;19.00;99.90;;;;;;6248635;22;20011;-79
2022/06/02 07:44:33;;;;;;;2.85;1.98;;;19.30;99.90;;;;;;6274623;22;20019;-80
2022/06/02 07:47:36;;;;;;;2.45;2.15;;;19.70;99.90;;;;;;6248683;22;20019;-79
2022/06/02 07:50:09;;;;;;;4.20;2.10;;;19.60;99.90;;;;;;6274389;22;20015;-80
2022/06/02 07:52:54;;;;;;;2.88;2.00;;;18.90;99.90;;;;;;6273989;22;20012;-81
2022/06/02 07:55:49;;;;;;;4.28;2.13;;;18.60;99.90;;;;;;6273988;22;20004;-81
2022/06/02 07:58:46;;;;;;;3.08;2.28;;;19.00;99.90;;;;;;6274097;22;20024;-78
2022/06/02 08:01:32;;;;;;;3.58;1.80;;;19.60;99.90;;;;;;6277104;22;20040;-80
2022/06/02 08:04:20;;;;;;;3.22;1.75;;;19.70;99.90;;;;;;6296662;22;20007;-79
2022/06/02 08:06:50;;;;;;;2.97;1.90;;;19.10;99.90;;;;;;6300438;22;20012;-78
2022/06/02 08:09:28;;;;;;;3.20;2.17;;;18.80;99.90;;;;;;6277686;22;20018;-78
2022/06/02 08:12:15;;;;;;;2.90;2.17;;;19.00;99.90;;;;;;6273060;22;20027;-80
2022/06/02 08:14:50;;;;;;;2.75;1.90;;;19.30;99.90;;;;;;6272975;22;20019;-77
2022/06/02 08:17:30;;;;;;;2.42;1.70;;;19.90;99.90;;;;;;6272648;22;20020;-78
2022/06/02 08:20:33;;;;;;;3.45;1.90;;;20.40;99.90;;;;;;6273348;22;20012;-78
2022/06/02 08:23:12;;;;;;;4.53;1.90;;;20.70;97.20;;;;;;6273482;22;20137;-82
2022/06/02 08:25:45;;;;;;;4.38;1.88;;;20.20;99.90;;;;;;6273879;22;20433;-80
2022/06/02 08:28:40;;;;;;;2.78;1.52;;;19.40;99.90;;;;;;6247766;22;20022;-79
2022/06/02 08:31:37;;;;;;;1.83;1.50;;;18.80;97.30;;;;;;6247157;22;20138;-80
2022/06/02 08:34:16;;;;;;;1.60;1.50;;;18.60;98.10;;;;;;6275389;22;20020;-80
2022/06/02 08:36:48;;;;;;;2.08;1.45;;;18.90;98.70;;;;;;6274145;22;20024;-78
2022/06/02 08:39:34;;;;;;;;;;;19.20;99.30;;;;;;6249891;22;20016;-79
2022/06/02 08:42:38;;;;;;;4.07;1.52;;;19.60;98.20;;;;;;6274609;22;19918;-78
2022/06/02 08:45:03;;;;;;;2.80;1.50;;;20.00;97.20;;;;;;6249062;22;20011;-80
2022/06/02 08:47:47;;;;;;;1.42;1.30;;;20.20;99.90;;;;;;6274688;22;20086;-78
2022/06/02 08:50:43;;;;;;;3.70;1.58;;;20.50;98.30;;;;;;6277351;22;20020;-77
2022/06/02 08:53:40;;;;;;;3.03;1.58;;;20.40;96.50;;;;;;6275062;22;20016;-78
2022/06/02 08:57:07;;;;;;;2.95;1.65;;;20.00;97.30;;;;;;6249254;22;20064;-79
2022/06/02 09:00:10;;;;;;;1.80;1.70;;;19.80;97.30;;;;;;6157376;23;20040;-77
2022/06/02 09:02:54;;;;;;;2.65;1.52;;;19.90;98.90;;;;;;6275193;22;20544;-78
2022/06/02 09:05:49;;;;;;;4.00;1.67;;;20.00;98.10;;;;;;6274722;22;20020;-78
2022/06/02 09:09:00;;;;;;;3.28;1.33;;;20.30;99.10;;;;;;6273804;22;20077;-77
2022/06/02 09:12:07;;;;;;;2.47;1.60;;;20.70;92.70;;;;;;6274259;22;20018;-79
2022/06/02 09:14:59;;;;;;;3.25;1.05;;;21.00;94.40;;;;;;6274792;22;20046;-79
2022/06/02 09:17:27;;;;;;;;;;;21.20;89.60;;;;;;6205170;22;20110;-78
2022/06/02 09:20:30;;;;;;;1.45;1.35;;;21.10;77.60;;;;;;6247230;22;20237;-80
2022/06/02 09:23:15;;;;;;;1.67;1.23;;;21.10;82.80;;;;;;6273258;22;20018;-79
2022/06/02 09:25:55;;;;;;;3.13;1.35;;;21.20;91.90;;;;;;6274370;22;20046;-81
2022/06/02 09:28:39;;;;;;;2.65;1.33;;;21.40;87.30;;;;;;6275009;22;20455;-81
2022/06/02 09:31:32;;;;;;;3.28;1.17;;;21.60;90.70;;;;;;6248329;22;20023;-80
2022/06/02 09:34:07;;;;;;;2.05;1.40;;;21.70;90.00;;;;;;6275350;22;20016;-80
2022/06/02 09:37:09;;;;;;;2.38;1.40;;;21.80;89.40;;;;;;6249217;22;20015;-79
2022/06/02 09:39:38;;;;;;;3.83;1.90;;;21.40;86.80;;;;;;6248349;22;20087;-82
2022/06/02 09:42:09;;;;;;;2.55;1.20;;;20.80;90.10;;;;;;6247750;22;20020;-82
2022/06/02 09:44:41;;;;;;;2.45;1.65;;;20.40;91.70;;;;;;6275360;22;20022;-82
2022/06/02 09:47:40;;;;;;;4.18;1.80;;;20.30;92.60;;;;;;6275426;22;20015;-81
2022/06/02 09:50:29;;;;;;;4.05;1.30;;;20.70;94.10;;;;;;6276604;22;20004;-81
2022/06/02 09:53:18;;;;;;;2.13;1.70;;;21.30;92.90;;;;;;6256563;22;20018;-81
2022/06/02 09:56:02;;;;;;;1.90;1.48;;;21.40;91.30;;;;;;6248151;22;20039;-83
2022/06/02 09:58:54;;;;;;;1.80;1.60;;;21.20;84.90;;;;;;6246832;22;20384;-83
2022/06/02 10:01:31;;;;;;;2.20;1.40;;;20.50;89.60;;;;;;6271943;22;20444;-84
2022/06/02 10:04:26;;;;;;;2.15;1.50;;;19.90;91.40;;;;;;6246712;22;20012;-83
2022/06/02 10:07:04;;;;;;;1.45;1.35;;;19.60;91.10;;;;;;6272155;22;20318;-83
2022/06/02 10:09:54;;;;;;;2.60;1.52;;;19.50;92.50;;;;;;6272285;22;20433;-81
2022/06/02 10:12:56;;;;;;;3.67;1.92;;;19.60;92.00;;;;;;6273454;22;20087;-82
2022/06/02 10:15:40;;;;;;;3.97;1.70;;;20.00;91.30;;;;;;6272808;22;20069;-82
2022/06/02 10:18:30;;;;;;;2.47;1.75;;;20.60;86.60;;;;;;6247132;22;20073;-84
2022/06/02 10:21:14;;;;;;;4.30;1.80;;;21.00;87.50;;;;;;6272422;22;20004;-84
2022/06/02 10:24:18;;;;;;;1.77;1.67;;;21.50;89.30;;;;;;6246623;22;20018;-84
2022/06/02 10:26:52;;;;;;;2.03;1.63;;;21.80;93.60;;;;;;6249260;22;20019;-83
2022/06/02 10:29:43;;;;;;;4.55;1.48;;;22.10;88.60;;;;;;6272789;22;20012;-83
2022/06/02 10:32:46;;;;;;;2.15;1.33;;;22.40;83.40;;;;;;6275416;22;20011;-83
2022/06/02 10:35:49;;;;;;;4.50;1.30;;;22.50;84.40;;;;;;6249651;22;20019;-83
2022/06/02 10:38:25;;;;;;;2.05;1.40;;;22.20;76.10;;;;;;6272907;22;20297;-84
2022/06/02 10:40:56;;;;;;;3.67;1.70;;;21.70;84.90;;;;;;6273704;22;20007;-84
2022/06/02 10:43:25;;;;;;;;;;;21.10;83.60;;;;;;6277024;22;20088;-82
2022/06/02 10:46:13;;;;;;;2.80;1.45;;;20.70;86.00;;;;;;6250895;22;19911;-83
2022/06/02 10:48:51;;;;;;;1.98;1.30;;;20.60;90.60;;;;;;6251008;22;20015;-83
2022/06/02 10:51:35;;;;;;;7.20;1.75;;;21.00;90.20;;;;;;6251179;22;20060;-82
2022/06/02 10:54:21;;;;;;;1.55;1.33;;;21.30;91.10;;;;;;6278199;22;20015;-82
2022/06/02 10:57:05;;;;;;;2.38;1.30;;;21.50;87.80;;;;;;6251946;22;20015;-85
2022/06/02 10:59:46;;;;;;;3.65;1.50;;;21.70;82.20;;;;;;6250960;22;20072;-84
2022/06/02 11:02:43;;;;;;;1.67;1.50;;;21.80;86.70;;;;;;6249578;22;20468;-85
2022/06/02 11:05:28;;;;;;;1.92;1.17;;;22.10;80.30;;;;;;6275960;22;20011;-82
2022/06/02 11:08:08;;;;;;;1.50;1.40;;;22.30;82.30;;;;;;6253212;22;20063;-81
2022/06/02 11:11:11;;;;;;;1.42;1.10;;;22.50;82.40;;;;;;6276649;22;20012;-81
2022/06/02 11:13:48;;;;;;;2.05;1.55;;;22.70;80.90;;;;;;6251608;22;20051;-82
2022/06/02 11:16:48;;;;;;;1.10;1.00;;;22.80;72.40;;;;;;6250350;23;20087;-81
2022/06/02 11:19:41;;;;;;;1.50;0.98;;;22.60;72.10;;;;;;6249900;23;20449;-81
2022/06/02 11:22:39;;;;;;;1.15;1.00;;;22.10;69.80;;;;;;6248982;22;20012;-83
2022/06/02 11:25:26;;;;;;;1.77;1.13;;;21.60;74.80;;;;;;6203829;23;20008;-81
2022/06/02 11:28:06;;;;;;;2.38;1.40;;;21.60;72.60;;;;;;6250759;23;20016;-82
2022/06/02 11:30:38;;;;;;;2.22;1.25;;;21.80;78.30;;;;;;6246206;23;20091;-80
2022/06/02 11:33:22;;;;;;;2.25;1.25;;;22.00;76.30;;;;;;6221130;23;20106;-80
2022/06/02 11:36:07;;;;;;;3.22;1.13;;;22.40;73.40;;;;;;6248298;23;20016;-80
2022/06/02 11:38:57;;;;;;;1.40;1.00;;;22.70;68.40;;;;;;6222993;23;20024;-81
2022/06/02 11:42:06;;;;;;;1.73;1.00;;;22.90;66.60;;;;;;6193911;23;20058;-81
2022/06/02 11:45:07;;;;;;;2.10;1.00;;;22.60;60.70;;;;;;6219364;23;20069;-80
2022/06/02 11:47:57;;;;;;;2.35;0.95;;;22.10;65.70;;;;;;6194318;23;20023;-81
2022/06/02 11:50:37;;;;;;;2.53;1.02;;;21.80;67.30;;;;;;6218512;23;20038;-80
2022/06/02 11:53:38;;;;;;;1.92;1.10;;;21.60;65.70;;;;;;6217995;23;20492;-82
2022/06/02 11:56:19;;;;;;;3.75;1.60;;;21.70;69.70;;;;;;6069940;23;20053;-81
2022/06/02 11:58:45;;;;;;;1.88;0.88;;;21.80;70.60;;;;;;6202701;23;20082;-81
2022/06/02 12:01:47;;;;;;;1.90;1.15;;;22.00;71.30;;;;;;6217941;23;20008;-82
2022/06/02 12:04:34;;;;;;;1.80;0.93;;;22.20;70.70;;;;;;6219204;23;20018;-81
2022/06/02 12:07:05;;;;;;;2.67;0.90;;;22.40;66.60;;;;;;6193201;23;20499;-80
2022/06/02 12:09:59;;;;;;;1.30;0.88;;;22.40;65.90;;;;;;6217868;23;20054;-81
2022/06/02 12:12:51;;;;;;;1.75;0.90;;;22.50;62.00;;;;;;6193322;23;20019;-83
2022/06/02 12:15:29;;;;;;;;;;;22.60;58.00;;;;;;6233748;22;20065;-83
2022/06/02 12:18:13;;;;;;;0.80;0.75;;;22.40;57.10;;;;;;6274216;22;20328;-82
2022/06/02 12:21:16;;;;;;;0.75;0.73;;;22.20;66.80;;;;;;6274448;22;20019;-81
2022/06/02 12:24:04;;;;;;;1.83;1.08;;;21.80;68.00;;;;;;6274119;22;20473;-81
2022/06/02 12:26:48;;;;;;;1.85;0.88;;;21.40;71.90;;;;;;6274492;22;20003;-82
2022/06/02 12:29:51;;;;;;;2.30;1.17;;;21.20;73.80;;;;;;6274576;22;20016;-82
2022/06/02 12:32:49;;;;;;;2.78;1.20;;;21.00;75.40;;;;;;6275948;22;20018;-82
2022/06/02 12:35:39;;;;;;;2.05;1.15;;;20.80;79.00;;;;;;6273524;22;20019;-82
2022/06/02 12:38:39;;;;;;;1.85;0.90;;;20.70;80.20;;;;;;6273308;22;20019;-83
2022/06/02 12:41:35;;;;;;;2.75;1.30;;;20.50;79.20;;;;;;6273142;22;20093;-81
2022/06/02 12:44:40;;;;;;;1.70;0.88;;;20.40;85.10;;;;;;6273441;22;20509;-83
2022/06/02 12:47:35;;;;;;;0.82;0.82;;;20.90;83.40;;;;;;6126271;23;20018;-83
2022/06/02 12:50:10;;;;;;;2.00;0.98;;;21.40;77.00;;;;;;6128519;23;20047;-81
2022/06/02 12:53:07;;;;;;;0.98;0.63;;;21.80;72.70;;;;;;6257044;22;20068;-80
2022/06/02 12:55:54;;;;;;;3.03;0.90;;;22.10;71.80;;;;;;6271160;22;20173;-82
2022/06/02 12:59:01;;;;;;;4.20;0.70;;;22.40;65.80;;;;;;6274097;22;20027;-79
2022/06/02 13:01:48;;;;;;;0.95;0.73;;;22.60;64.10;;;;;;6248840;22;20040;-79
2022/06/02 13:04:40;;;;;;;1.15;0.80;;;22.90;66.70;;;;;;6274617;22;20015;-80
2022/06/02 13:07:33;;;;;;;1.83;0.77;;;22.90;66.00;;;;;;6274905;22;20062;-80
2022/06/02 13:10:25;;;;;;;2.30;0.80;;;22.80;67.90;;;;;;6275851;22;20012;-80
2022/06/02 13:13:28;;;;;;;1.65;0.80;;;22.70;66.50;;;;;;6266206;22;20016;-80
2022/06/02 13:16:26;;;;;;;1.95;0.77;;;22.30;67.20;;;;;;6250307;22;20412;-80
2022/06/02 13:19:01;;;;;;;2.28;1.20;;;22.00;68.90;;;;;;6274183;22;20016;-79
2022/06/02 13:21:39;;;;;;;0.93;0.73;;;21.80;70.90;;;;;;6271931;22;20022;-80
2022/06/02 13:24:27;;;;;;;8.63;5.43;;;21.80;71.20;;;;;;6247911;22;20337;-79
2022/06/02 13:27:30;;;;;;;1.45;1.00;;;21.70;68.50;;;;;;6276036;22;20435;-79
2022/06/02 13:30:16;;;;;;;0.93;0.70;;;21.80;62.50;;;;;;6246884;22;20506;-79
2022/06/02 13:32:51;;;;;;;0.85;0.80;;;21.90;65.80;;;;;;6272777;22;20030;-83
2022/06/02 13:35:51;;;;;;;1.15;0.70;;;21.90;66.10;;;;;;6276079;22;20022;-79
2022/06/02 13:38:23;;;;;;;0.98;0.70;;;22.30;66.60;;;;;;6274461;22;20544;-81
2022/06/02 13:41:00;;;;;;;1.48;0.63;;;22.80;66.60;;;;;;6274017;22;20042;-80
2022/06/02 13:43:54;;;;;;;1.25;0.70;;;23.20;63.00;;;;;;6248626;22;20011;-80
2022/06/02 13:46:41;;;;;;;1.50;0.70;;;23.10;58.90;;;;;;6248084;22;20042;-81
2022/06/02 13:49:31;;;;;;;1.83;0.85;;;23.00;64.20;;;;;;6273321;22;20436;-81
2022/06/02 13:52:03;;;;;;;0.98;0.90;;;23.00;62.90;;;;;;6273460;22;20016;-80
2022/06/02 13:58:13;;;;;;;2.50;0.90;;;22.50;58.70;;;;;;6180750;23;19923;-81
2022/06/02 14:01:11;;;;;;;2.75;0.80;;;22.30;58.50;;;;;;6272718;22;20018;-81
2022/06/02 14:04:15;;;;;;;0.95;0.70;;;22.30;63.50;;;;;;6222787;22;20445;-79
2022/06/02 14:06:51;;;;;;;1.70;0.88;;;22.30;61.80;;;;;;6273148;22;20015;-78
2022/06/02 14:09:41;;;;;;;1.10;0.85;;;22.10;64.40;;;;;;6247001;22;20015;-78
2022/06/02 14:12:37;;;;;;;0.93;0.68;;;21.80;66.10;;;;;;6272403;22;20012;-78
2022/06/02 14:15:06;;;;;;;1.13;0.60;;;21.50;67.50;;;;;;6272333;22;20086;-78
2022/06/02 14:17:55;;;;;;;2.10;0.60;;;21.20;70.60;;;;;;6272811;22;20016;-78
2022/06/02 14:20:28;;;;;;;1.60;0.80;;;21.00;72.40;;;;;;6272523;22;20062;-78
2022/06/02 14:23:03;;;;;;;1.63;1.15;;;20.80;74.60;;;;;;6274232;22;20015;-78
2022/06/02 14:25:32;;;;;;;0.68;0.68;;;20.70;78.40;;;;;;6274076;22;20468;-78
2022/06/02 14:28:42;;;;;;;1.00;0.60;;;20.50;78.10;;;;;;6273960;22;20465;-78
2022/06/02 14:31:16;;;;;;;0.95;0.80;;;20.50;79.40;;;;;;6273608;22;20012;-78
2022/06/02 14:33:48;;;;;;;2.17;0.80;;;20.60;74.90;;;;;;6274521;22;20021;-78
2022/06/02 14:36:35;;;;;;;2.08;1.15;;;20.70;76.90;;;;;;6274859;22;20141;-79
2022/06/02 14:39:26;;;;;;;1.52;0.70;;;20.80;71.50;;;;;;6274719;22;20134;-79